Detall de PIREP

Printer-friendly versionPDF version

[2012/04/14 16:59:00]
Flight IATA:CT1006
Pilot Number:042
Company ICAO:CAT
Aircraft Type:B738/F
PAX:150
Departing Airport: LTBA
Destination Airport: LGAV
Alternate Airport:LGTS
Online: VATSIM
Route:BIG UG8 AMANI UN604 KEPIR
Flight Level:F340
No Slew and time accel
No pause
Crash detect
Detect pilot in Cockpit between each 30 and 45 minutes
16:59 Zero fuel Weight: 91661 Lbs, Fuel Weight: 46053 Lbs
16:59 VATSIM:LTBA 141620Z 18005KT 6000 -SHRA BKN023 BKN080 14/14 Q1002 NOSIG
16:59 VATSIM:LGAV 141620Z 21009KT 9999 FEW020 BKN060 18/10 Q0998 NOSIG
16:59 VOICE CATALONIAN/ALMOGAVERS ROUTE
17:08 Parking Brakes off
17:24 Take-off
17:24 Take off Weight: 136194 Lbs
17:24 Wind: 000º @ 002 Knots Heading: 358º
17:24 POS N40º 59´ 09´´ E028º 48´ 32´´
17:24 Gear Up: 164 Knots
17:24 Flaps:5 at 164 Knots
17:24 Flaps:4 at 154 Knots
17:25 Flaps:3 at 173 Knots
17:25 Flaps:4 at 189 Knots
17:25 Flaps:3 at 191 Knots
17:25 Flaps:2 at 212 Knots
17:26 Flaps:1 at 229 Knots
17:26 Flaps:0 at 229 Knots
17:39 Wind:207º@072 Knots Heading: 206º Ground Speed: 390 Knots Altitude 31456 ft
17:40 TOC
17:40 Fuel Weight: 41297 Lb
17:52 Gear Down: 274 Knots
17:52 Gear Up: 272 Knots
17:54 Wind:217º@075 Knots Heading: 229º Ground Speed: 385 Knots Altitude 33608 ft
17:57 TOD
17:57 Fuel Weight: 39742 Lb
18:05 Flaps:1 at 237 Knots
18:05 Flaps:2 at 237 Knots
18:06 Flaps:0 at 236 Knots
18:09 Wind:238º@030 Knots Heading: 236º Ground Speed: 275 Knots Altitude 18018 ft
18:09 Flaps:1 at 234 Knots
18:09 Flaps:0 at 234 Knots
18:11 Flaps:1 at 249 Knots
18:13 Flaps:2 at 235 Knots
18:17 Flaps:1 at 198 Knots
18:17 Flaps:0 at 199 Knots
18:20 Flaps:1 at 201 Knots
18:20 Flaps:2 at 201 Knots
18:20 Flaps:3 at 199 Knots
18:21 Flaps:4 at 188 Knots
18:22 Flaps:5 at 181 Knots
18:24 Wind:208º@008 Knots Heading: 240º Ground Speed: 162 Knots Altitude 2995 ft
18:24 Flaps:6 at 159 Knots
18:24 Gear Down: 160 Knots
18:24 Flaps:8 at 161 Knots
18:28 TouchDown:Rate -378 ft/min Speed: 110 Knots
18:28 VATSIM:LGAV 141750Z 23012KT 9999 FEW020 SCT060 BKN180 17/08 Q0999 NOSIG
18:28 Land
18:28 Wind:220º@011 Knots
18:28 Heading: 217º
18:28 Flight Duration: 01:04
18:28 Landing Weight: 129650 Lbs
18:28 POS N37º 56´ 05´´ E023º 55´ 54´´
18:35 Parking brakes on
18:35 Block to Block Duration: 01:27
18:35 Final Fuel: 37164 Lbls
18:35 Spent Fuel: 8888 Lbls
18:35 Flight Length: 250 NM
18:35 TOD Land Length: 51 NM

Exportar CSV

Powered by Drupal - Modified by Danger4k